createdAt,value
2018-05-06T00:01:39.294Z,10.30
2018-05-06T00:04:10.174Z,10.00
2018-05-06T00:06:40.479Z,14.07
2018-05-06T00:09:11.894Z,11.90
2018-05-06T00:11:42.877Z,12.67
2018-05-06T00:14:13.923Z,13.13
2018-05-06T00:16:44.473Z,13.30
2018-05-06T00:19:14.359Z,8.53
2018-05-06T00:21:45.663Z,9.03
2018-05-06T00:24:15.982Z,12.10
2018-05-06T00:26:46.080Z,11.53
2018-05-06T00:29:16.664Z,9.00
2018-05-06T00:31:46.594Z,11.50
2018-05-06T00:34:16.685Z,12.13
2018-05-06T00:36:46.970Z,13.70
2018-05-06T00:39:18.025Z,13.97
2018-05-06T00:41:49.306Z,8.83
2018-05-06T00:44:19.627Z,10.47
2018-05-06T00:46:50.486Z,17.27
2018-05-06T00:49:20.609Z,13.40
2018-05-06T00:51:50.914Z,16.57
2018-05-06T00:54:37.839Z,11.20
2018-05-06T00:57:08.699Z,12.87
2018-05-06T00:59:39.562Z,13.50
2018-05-06T01:02:10.930Z,8.73
2018-05-06T01:04:41.038Z,9.53
2018-05-06T01:07:11.127Z,12.70
2018-05-06T01:09:41.972Z,11.53
2018-05-06T01:12:12.710Z,9.53
2018-05-06T01:14:42.811Z,12.77
2018-05-06T01:17:12.895Z,10.13
2018-05-06T01:19:42.998Z,13.23
2018-05-06T01:22:13.291Z,11.40
2018-05-06T01:24:43.683Z,13.17
2018-05-06T01:27:13.951Z,13.60
2018-05-06T01:29:44.498Z,11.10
2018-05-06T01:32:14.351Z,21.70
2018-05-06T01:34:44.647Z,14.43
2018-05-06T01:37:14.733Z,12.67
2018-05-06T01:39:44.819Z,12.67
2018-05-06T01:42:15.100Z,16.23
2018-05-06T01:44:46.155Z,11.53
2018-05-06T01:47:16.241Z,13.13
2018-05-06T01:49:46.336Z,13.07
2018-05-06T01:52:16.638Z,12.60
2018-05-06T01:54:46.966Z,13.13
2018-05-06T01:57:18.023Z,16.63
2018-05-06T01:59:48.312Z,13.03
2018-05-06T02:02:18.418Z,12.77
2018-05-06T02:04:48.491Z,13.47
2018-05-06T02:07:18.603Z,17.30
2018-05-06T02:09:48.366Z,9.67
2018-05-06T02:12:19.418Z,14.50
2018-05-06T02:14:49.728Z,16.07
2018-05-06T02:17:19.975Z,11.50
2018-05-06T02:19:50.106Z,12.23
2018-05-06T02:22:20.418Z,13.87
2018-05-06T02:24:50.725Z,13.13
2018-05-06T02:27:20.815Z,11.80
2018-05-06T02:29:51.093Z,18.73
2018-05-06T02:32:20.798Z,15.87
2018-05-06T02:34:51.623Z,16.77
2018-05-06T02:37:21.984Z,18.20
2018-05-06T02:39:52.255Z,16.60
2018-05-06T02:42:23.314Z,16.13
2018-05-06T02:44:53.402Z,10.80
2018-05-06T02:47:24.435Z,14.13
2018-05-06T02:49:54.738Z,19.60
2018-05-06T02:52:25.852Z,12.70
2018-05-06T02:54:56.122Z,15.23
2018-05-06T02:57:26.966Z,12.43
2018-05-06T02:59:57.587Z,18.07
2018-05-06T03:02:27.671Z,13.17
2018-05-06T03:04:58.543Z,18.83
2018-05-06T03:07:30.389Z,12.50
2018-05-06T03:10:00.821Z,12.03
2018-05-06T03:12:31.152Z,18.00
2018-05-06T03:15:01.502Z,15.03
2018-05-06T03:17:32.546Z,20.60
2018-05-06T03:20:03.634Z,13.73
2018-05-06T03:22:33.711Z,15.27
2018-05-06T03:25:03.685Z,20.10
2018-05-06T03:27:33.769Z,11.70
2018-05-06T03:30:03.743Z,13.83
2018-05-06T03:32:33.805Z,11.27
2018-05-06T03:35:03.656Z,15.93
2018-05-06T03:37:34.603Z,12.17
2018-05-06T03:40:03.916Z,13.43
2018-05-06T03:42:34.196Z,15.97
2018-05-06T03:45:04.699Z,14.57
2018-05-06T03:47:34.980Z,12.53
2018-05-06T03:50:04.342Z,14.80
2018-05-06T03:52:34.569Z,13.53
2018-05-06T03:55:04.504Z,14.27
2018-05-06T03:57:51.363Z,12.87
2018-05-06T04:00:38.318Z,14.47
2018-05-06T04:03:08.599Z,11.43
2018-05-06T04:05:38.701Z,16.40
2018-05-06T04:08:08.963Z,16.27
2018-05-06T04:10:39.039Z,14.57
2018-05-06T04:13:09.132Z,13.97
2018-05-06T04:15:39.215Z,13.77
2018-05-06T04:18:10.083Z,10.00
2018-05-06T04:20:41.205Z,13.90
2018-05-06T04:23:11.560Z,13.40
2018-05-06T04:25:41.640Z,10.27
2018-05-06T04:28:11.718Z,12.83
2018-05-06T04:30:42.465Z,10.20
2018-05-06T04:33:12.527Z,12.23
2018-05-06T04:35:42.808Z,13.10
2018-05-06T04:38:13.078Z,11.93
2018-05-06T04:40:43.157Z,13.10
2018-05-06T04:43:13.698Z,11.57
2018-05-06T04:45:43.483Z,14.30
2018-05-06T04:48:14.050Z,10.77
2018-05-06T04:50:44.118Z,11.77
2018-05-06T04:53:14.195Z,13.43
2018-05-06T04:55:44.040Z,9.03
2018-05-06T04:58:14.114Z,12.63
2018-05-06T05:00:44.388Z,11.10
2018-05-06T05:03:14.483Z,10.83
2018-05-06T05:05:44.781Z,12.27
2018-05-06T05:08:14.888Z,11.77
2018-05-06T05:10:45.249Z,9.73
2018-05-06T05:13:16.135Z,10.70
2018-05-06T05:15:46.274Z,10.40
2018-05-06T05:18:16.678Z,8.67
2018-05-06T05:20:46.871Z,9.50
2018-05-06T05:23:17.544Z,10.77
2018-05-06T05:25:47.643Z,11.90
2018-05-06T05:28:17.720Z,9.03
2018-05-06T05:30:48.768Z,9.87
2018-05-06T05:33:18.877Z,8.77
2018-05-06T05:35:49.187Z,7.73
2018-05-06T05:38:19.297Z,18.73
2018-05-06T05:40:49.631Z,8.93
2018-05-06T05:43:19.735Z,9.93
2018-05-06T05:45:49.460Z,8.23
2018-05-06T05:48:19.555Z,9.10
2018-05-06T05:50:49.867Z,11.50
2018-05-06T05:53:20.190Z,11.03
2018-05-06T05:55:51.067Z,6.90
2018-05-06T05:58:22.137Z,10.00
2018-05-06T06:00:53.748Z,9.40
2018-05-06T06:03:24.432Z,10.27
2018-05-06T06:05:54.826Z,8.93
2018-05-06T06:08:25.662Z,8.97
2018-05-06T06:10:56.033Z,14.40
2018-05-06T06:13:26.135Z,8.57
2018-05-06T06:15:56.239Z,8.87
2018-05-06T06:18:26.511Z,11.47
2018-05-06T06:20:56.869Z,14.07
2018-05-06T06:23:27.725Z,10.17
2018-05-06T06:25:58.029Z,8.70
2018-05-06T06:28:28.339Z,8.73
2018-05-06T06:30:58.441Z,10.73
2018-05-06T06:33:29.135Z,14.27
2018-05-06T06:35:59.814Z,11.65
2018-05-06T06:38:30.454Z,9.40
2018-05-06T06:41:01.305Z,11.27
2018-05-06T06:43:32.135Z,8.05
2018-05-06T06:46:03.009Z,9.23
2018-05-06T06:48:34.419Z,8.85
2018-05-06T06:51:05.096Z,10.45
2018-05-06T06:53:35.768Z,12.15
2018-05-06T06:56:05.855Z,15.43
2018-05-06T06:58:36.503Z,9.40
2018-05-06T07:01:07.327Z,8.25
2018-05-06T07:03:38.099Z,8.82
2018-05-06T07:06:08.776Z,9.75
2018-05-06T07:08:42.532Z,10.35
2018-05-06T07:11:13.739Z,9.45
2018-05-06T07:13:45.114Z,7.68
2018-05-06T07:16:16.965Z,8.73
2018-05-06T07:18:47.593Z,7.18
2018-05-06T07:21:18.953Z,8.27
2018-05-06T07:23:50.651Z,7.12
2018-05-06T07:26:21.294Z,9.45
2018-05-06T07:28:51.960Z,12.15
2018-05-06T07:31:22.624Z,6.40
2018-05-06T07:33:53.259Z,8.70
2018-05-06T07:36:23.684Z,9.68
2018-05-06T07:38:55.776Z,8.38
2018-05-06T07:41:26.549Z,10.93
2018-05-06T07:43:58.154Z,11.02
2018-05-06T07:46:29.929Z,11.52
2018-05-06T07:49:01.104Z,9.55
2018-05-06T07:51:31.891Z,6.78
2018-05-06T07:54:02.751Z,9.95
2018-05-06T07:56:33.610Z,7.28
2018-05-06T07:59:04.262Z,7.20
2018-05-06T08:01:34.923Z,10.05
2018-05-06T08:04:05.568Z,8.32
2018-05-06T08:06:36.238Z,11.90
2018-05-06T08:09:06.267Z,6.68
2018-05-06T08:11:37.096Z,9.15
2018-05-06T08:14:07.779Z,7.03
2018-05-06T08:16:39.120Z,8.07
2018-05-06T08:19:10.733Z,13.05
2018-05-06T08:21:41.420Z,9.50
2018-05-06T08:24:12.074Z,9.30
2018-05-06T08:26:42.940Z,7.37
2018-05-06T08:29:13.666Z,8.90
2018-05-06T08:31:44.327Z,10.38
2018-05-06T08:34:14.997Z,10.32
2018-05-06T08:36:46.847Z,8.40
2018-05-06T08:39:17.534Z,6.85
2018-05-06T08:41:48.218Z,7.12
2018-05-06T08:44:18.872Z,8.90
2018-05-06T08:46:49.787Z,10.93
2018-05-06T08:49:20.438Z,8.85
2018-05-06T08:51:51.314Z,10.90
2018-05-06T08:54:21.967Z,8.57
2018-05-06T08:56:52.631Z,8.50
2018-05-06T08:59:23.273Z,9.70
2018-05-06T09:01:53.966Z,7.25
2018-05-06T09:04:24.650Z,10.45
2018-05-06T09:06:55.537Z,7.40
2018-05-06T09:09:26.956Z,5.85
2018-05-06T09:11:57.830Z,8.60
2018-05-06T09:14:28.495Z,10.07
2018-05-06T09:16:59.245Z,10.50
2018-05-06T09:19:30.104Z,11.40
2018-05-06T09:22:00.751Z,8.35
2018-05-06T09:24:31.457Z,7.47
2018-05-06T09:27:02.864Z,7.55
2018-05-06T09:29:33.542Z,10.70
2018-05-06T09:32:04.259Z,9.23
2018-05-06T09:34:35.490Z,6.90
2018-05-06T09:37:06.291Z,8.10
2018-05-06T09:39:37.385Z,9.50
2018-05-06T09:42:09.144Z,10.35
2018-05-06T09:44:41.182Z,13.07
2018-05-06T09:47:11.883Z,10.40
2018-05-06T09:49:42.503Z,9.30
2018-05-06T09:52:13.782Z,11.00
2018-05-06T09:54:44.442Z,9.32
2018-05-06T09:57:15.070Z,9.73
2018-05-06T09:59:45.646Z,10.73
2018-05-06T10:02:16.301Z,8.57
2018-05-06T10:04:47.211Z,10.68
2018-05-06T10:07:18.643Z,12.23
2018-05-06T10:09:49.541Z,9.98
2018-05-06T10:12:20.213Z,9.60
2018-05-06T10:14:51.133Z,10.70
2018-05-06T10:17:22.860Z,9.55
2018-05-06T10:19:53.667Z,10.38
2018-05-06T10:22:24.627Z,8.20
2018-05-06T10:24:55.401Z,7.87
2018-05-06T10:27:26.148Z,10.65
2018-05-06T10:29:57.024Z,9.18
2018-05-06T10:32:27.613Z,9.52
2018-05-06T10:34:58.268Z,7.60
2018-05-06T10:37:29.084Z,6.47
2018-05-06T10:40:00.583Z,9.35
2018-05-06T10:42:31.444Z,9.45
2018-05-06T10:45:02.160Z,9.73
2018-05-06T10:47:32.850Z,6.90
2018-05-06T10:50:03.386Z,8.57
2018-05-06T10:52:35.056Z,10.35
2018-05-06T10:55:07.196Z,11.35
2018-05-06T10:57:37.918Z,13.62
2018-05-06T11:00:09.351Z,7.57
2018-05-06T11:02:40.055Z,11.20
2018-05-06T11:05:10.666Z,8.73
2018-05-06T11:07:41.141Z,7.78
2018-05-06T11:10:12.628Z,6.62
2018-05-06T11:12:43.399Z,8.23
2018-05-06T11:15:14.029Z,10.55
2018-05-06T11:17:44.670Z,8.45
2018-05-06T11:20:15.545Z,10.02
2018-05-06T11:22:46.164Z,8.48
2018-05-06T11:25:16.813Z,8.30
2018-05-06T11:27:47.673Z,10.40
2018-05-06T11:30:18.525Z,9.00
2018-05-06T11:32:49.174Z,6.10
2018-05-06T11:35:20.605Z,6.47
2018-05-06T11:37:51.155Z,9.07
2018-05-06T11:40:21.835Z,14.60
2018-05-06T11:42:52.464Z,9.65
2018-05-06T11:45:23.314Z,9.77
2018-05-06T11:47:54.216Z,8.25
2018-05-06T11:50:24.869Z,7.55
2018-05-06T11:52:55.788Z,9.27
2018-05-06T11:55:26.664Z,9.70
2018-05-06T11:57:57.080Z,11.88
2018-05-06T12:00:28.532Z,10.10
2018-05-06T12:02:59.942Z,9.45
2018-05-06T12:05:30.793Z,11.43
2018-05-06T12:08:01.796Z,7.47
2018-05-06T12:10:32.434Z,5.82
2018-05-06T12:13:04.015Z,8.25
2018-05-06T12:15:34.879Z,10.20
2018-05-06T12:18:05.554Z,8.40
2018-05-06T12:20:36.091Z,9.73
2018-05-06T12:23:06.504Z,6.45
2018-05-06T12:25:37.898Z,6.47
2018-05-06T12:28:09.548Z,9.80
2018-05-06T12:30:40.175Z,8.40
2018-05-06T12:33:11.048Z,6.55
2018-05-06T12:35:41.710Z,8.13
2018-05-06T12:38:12.779Z,8.77
2018-05-06T12:40:43.638Z,6.18
2018-05-06T12:43:14.624Z,10.63
2018-05-06T12:45:45.443Z,9.35
2018-05-06T12:48:16.342Z,8.93
2018-05-06T12:50:47.227Z,5.72
2018-05-06T12:53:18.135Z,7.93
2018-05-06T12:55:48.809Z,10.80
2018-05-06T12:58:19.584Z,8.88
2018-05-06T13:00:50.510Z,7.00
2018-05-06T13:03:22.340Z,6.32
2018-05-06T13:05:53.032Z,6.68
2018-05-06T13:08:23.890Z,10.45
2018-05-06T13:10:54.632Z,8.90
2018-05-06T13:13:25.313Z,7.30
2018-05-06T13:15:56.746Z,8.90
2018-05-06T13:18:27.533Z,5.50
2018-05-06T13:20:58.228Z,6.97
2018-05-06T13:23:28.883Z,10.02
2018-05-06T13:25:59.881Z,6.57
2018-05-06T13:28:30.584Z,5.43
2018-05-06T13:31:01.241Z,7.20
2018-05-06T13:33:31.902Z,6.28
2018-05-06T13:36:02.575Z,7.37
2018-05-06T13:38:33.085Z,7.93
2018-05-06T13:41:03.473Z,7.45
2018-05-06T13:43:33.939Z,9.43
2018-05-06T13:46:03.999Z,7.60
2018-05-06T13:48:35.810Z,5.40
2018-05-06T13:51:06.486Z,7.82
2018-05-06T13:53:37.951Z,5.72
2018-05-06T13:56:08.630Z,7.97
2018-05-06T13:58:40.076Z,7.25
2018-05-06T14:01:10.732Z,6.05
2018-05-06T14:03:41.602Z,9.18
2018-05-06T14:06:12.257Z,4.85
2018-05-06T14:08:43.162Z,6.95
2018-05-06T14:11:13.825Z,5.90
2018-05-06T14:13:44.498Z,9.75
2018-05-06T14:16:15.377Z,5.40
2018-05-06T14:18:45.835Z,7.70
2018-05-06T14:21:16.667Z,7.20
2018-05-06T14:23:47.403Z,4.90
2018-05-06T14:26:18.795Z,8.50
2018-05-06T14:28:49.685Z,8.20
2018-05-06T14:31:20.349Z,7.57
2018-05-06T14:33:51.201Z,4.07
2018-05-06T14:36:24.652Z,8.98
2018-05-06T14:38:55.298Z,6.07
2018-05-06T14:41:25.964Z,3.78
2018-05-06T14:43:56.655Z,6.40
2018-05-06T14:46:44.559Z,3.90
2018-05-06T14:49:15.260Z,5.85
2018-05-06T14:51:46.693Z,8.77
2018-05-06T14:54:17.352Z,5.62
2018-05-06T14:56:48.041Z,10.48
2018-05-06T14:59:18.913Z,6.57
2018-05-06T15:01:50.409Z,7.00
2018-05-06T15:04:21.876Z,3.70
2018-05-06T15:06:52.373Z,6.15
2018-05-06T15:09:23.071Z,7.35
2018-05-06T15:11:53.495Z,8.15
2018-05-06T15:14:35.692Z,7.47
2018-05-06T15:17:06.124Z,7.05
2018-05-06T15:19:37.557Z,5.07
2018-05-06T15:22:08.211Z,11.73
2018-05-06T15:24:38.856Z,5.75
2018-05-06T15:27:09.532Z,5.22
2018-05-06T15:29:40.799Z,2.97
2018-05-06T15:32:11.456Z,5.45
2018-05-06T15:34:42.189Z,5.50
2018-05-06T15:37:12.832Z,4.72
2018-05-06T15:39:43.730Z,3.75
2018-05-06T15:42:14.467Z,3.65
2018-05-06T15:44:45.861Z,6.03
2018-05-06T15:47:16.671Z,3.75
2018-05-06T15:49:47.600Z,6.15
2018-05-06T15:52:17.951Z,4.00
2018-05-06T15:54:48.872Z,3.97
2018-05-06T15:57:19.429Z,3.90
2018-05-06T15:59:50.102Z,7.57
2018-05-06T16:27:01.784Z,4.28
2018-05-06T16:29:32.578Z,3.33
2018-05-06T16:32:03.924Z,6.53
2018-05-06T16:34:34.628Z,7.65
2018-05-06T16:37:23.478Z,2.60
2018-05-06T16:40:21.086Z,3.85
2018-05-06T16:55:22.280Z,2.90
2018-05-06T16:57:53.680Z,4.45
2018-05-06T17:03:32.653Z,6.05
2018-05-06T17:30:53.984Z,3.47
2018-05-06T17:33:35.215Z,6.28
2018-05-06T17:39:15.044Z,5.60
2018-05-06T17:41:46.718Z,4.20
2018-05-06T17:44:23.930Z,2.50
2018-05-06T17:47:21.152Z,4.60
2018-05-06T17:49:53.764Z,3.47
2018-05-06T18:01:47.748Z,5.10
2018-05-06T18:07:19.391Z,2.87
2018-05-06T18:10:22.305Z,3.57
2018-05-06T18:12:58.404Z,4.53
2018-05-06T18:18:53.928Z,4.37
2018-05-06T18:24:42.356Z,4.60
2018-05-06T18:27:24.811Z,2.33
2018-05-06T18:30:21.876Z,4.93
2018-05-06T18:36:02.835Z,5.93
2018-05-06T18:38:32.975Z,3.33
2018-05-06T18:41:22.193Z,2.53
2018-05-06T18:47:02.641Z,2.83
2018-05-06T18:52:39.310Z,3.73
2018-05-06T18:55:14.725Z,3.10
2018-05-06T18:57:54.992Z,3.20
2018-05-06T19:00:27.233Z,5.33
2018-05-06T19:03:04.426Z,3.40
2018-05-06T19:05:52.338Z,3.20
2018-05-06T19:14:39.472Z,2.57
2018-05-06T19:17:22.741Z,2.10
2018-05-06T19:20:06.203Z,2.80
2018-05-06T19:22:47.155Z,5.10
2018-05-06T19:25:17.772Z,3.73
2018-05-06T19:27:55.031Z,5.73
2018-05-06T19:30:25.557Z,2.97
2018-05-06T19:32:56.588Z,3.00
2018-05-06T19:38:33.292Z,3.30
2018-05-06T19:41:03.843Z,4.03
2018-05-06T19:46:42.499Z,8.70
2018-05-06T19:49:23.386Z,2.30
2018-05-06T19:52:30.893Z,2.03
2018-05-06T19:55:23.284Z,2.33
2018-05-06T19:57:54.166Z,2.80
2018-05-06T20:00:24.762Z,6.67
2018-05-06T20:06:01.026Z,5.00
2018-05-06T20:08:31.109Z,2.80
2018-05-06T20:11:23.615Z,3.33
2018-05-06T20:13:59.529Z,7.33
2018-05-06T20:16:29.661Z,4.03
2018-05-06T20:22:31.715Z,9.87
2018-05-06T20:25:01.837Z,3.17
2018-05-06T20:27:32.747Z,7.17
2018-05-06T20:36:19.514Z,4.17
2018-05-06T20:38:50.440Z,5.10
2018-05-06T20:41:21.603Z,2.53
2018-05-06T20:43:53.285Z,8.53
2018-05-06T20:46:23.812Z,6.43
2018-05-06T20:48:54.848Z,3.13
2018-05-06T20:51:25.049Z,2.57
2018-05-06T20:53:55.208Z,11.33
2018-05-06T20:56:26.668Z,2.40
2018-05-06T20:58:57.249Z,3.10
2018-05-06T21:01:27.845Z,6.47
2018-05-06T21:03:58.910Z,5.97
2018-05-06T21:06:29.140Z,5.70
2018-05-06T21:08:59.284Z,4.03
2018-05-06T21:11:29.592Z,3.50
2018-05-06T21:14:01.481Z,2.87
2018-05-06T21:16:33.637Z,6.10
2018-05-06T21:19:03.835Z,4.13
2018-05-06T21:21:33.972Z,4.17
2018-05-06T21:24:04.868Z,3.50
2018-05-06T21:26:34.474Z,2.67
2018-05-06T21:29:05.033Z,3.13
2018-05-06T21:31:35.947Z,5.03
2018-05-06T21:34:06.095Z,3.23
2018-05-06T21:36:36.364Z,3.00
2018-05-06T21:39:05.964Z,3.23
2018-05-06T21:41:36.143Z,2.47
2018-05-06T21:44:06.985Z,3.17
2018-05-06T21:46:38.641Z,6.47
2018-05-06T21:49:09.621Z,2.30
2018-05-06T21:51:39.776Z,4.53
2018-05-06T21:54:09.996Z,4.03
2018-05-06T21:56:40.400Z,6.73
2018-05-06T21:59:10.790Z,5.30
2018-05-06T22:01:41.975Z,7.60
2018-05-06T22:04:12.079Z,6.30
2018-05-06T22:06:41.634Z,5.33
2018-05-06T22:09:11.489Z,3.90
2018-05-06T22:11:41.613Z,2.67
2018-05-06T22:14:14.035Z,4.60
2018-05-06T22:16:44.488Z,8.97
2018-05-06T22:19:15.679Z,2.87
2018-05-06T22:21:46.128Z,7.00
2018-05-06T22:24:16.605Z,2.70
2018-05-06T22:26:46.996Z,8.17
2018-05-06T22:29:17.995Z,9.43
2018-05-06T22:31:48.362Z,4.30
2018-05-06T22:34:18.713Z,4.47
2018-05-06T22:36:49.753Z,2.80
2018-05-06T22:39:19.916Z,3.80
2018-05-06T22:41:51.821Z,7.10
2018-05-06T22:44:23.480Z,5.80
2018-05-06T22:46:53.612Z,5.77
2018-05-06T22:49:23.894Z,5.63
2018-05-06T22:51:54.974Z,2.40
2018-05-06T22:54:26.482Z,2.10
2018-05-06T22:56:56.674Z,4.23
2018-05-06T22:59:31.362Z,6.27
2018-05-06T23:02:02.842Z,4.97
2018-05-06T23:04:33.309Z,7.63
2018-05-06T23:07:07.827Z,4.27
2018-05-06T23:09:39.572Z,4.20
2018-05-06T23:12:09.699Z,5.03
2018-05-06T23:14:40.846Z,8.00
2018-05-06T23:17:11.724Z,3.53
2018-05-06T23:19:44.958Z,4.97
2018-05-06T23:22:15.517Z,2.60
2018-05-06T23:24:51.294Z,5.13
2018-05-06T23:27:22.621Z,6.27
2018-05-06T23:29:58.860Z,3.37
2018-05-06T23:32:30.527Z,2.40
2018-05-06T23:35:02.590Z,3.57
2018-05-06T23:37:32.768Z,2.13
2018-05-06T23:40:10.231Z,7.20
2018-05-06T23:42:50.657Z,4.00
2018-05-06T23:45:21.933Z,4.17
2018-05-06T23:47:56.014Z,4.33
2018-05-06T23:50:39.776Z,3.10
2018-05-06T23:53:10.427Z,7.00
2018-05-06T23:55:41.441Z,3.60
2018-05-06T23:58:11.550Z,5.57
